Qtas de Dorado, Puerto Rico
Current Conditions -  °F | °C
As of 7:56 PM on Friday 28 Nov 2014 (Local Time) from TJSJ Reporting Station
Clear Clear  
Wind Chill: 79°   Ceiling: Unl
Heat Index: 82°   Visibility: 10mi
Dew Point: 70°   Wind: 3mph
Humidity: 74%   Direction: 110°ESE
Pressure: 29.96"   Gusts: NA
Location:  18.4598°N, 66.2592°W
Report Text: TJSJ 282356Z 11003KT 10SM CLR 26/21 A2996 RMK AO2 SLP145 T02610211 10294 20256 53017
Loading
Personal Weather Stations






























Interactive Weather Map New forecast layout! Learn more

10-Day Weather Forecast

Advertisements
Track Severe Weather on mobile